createdAt,value
2023-02-09T00:01:25.266Z,2.48
2023-02-09T00:03:53.059Z,2.48
2023-02-09T00:06:23.813Z,2.49
2023-02-09T00:08:50.970Z,2.48
2023-02-09T00:11:49.555Z,2.49
2023-02-09T00:14:21.508Z,2.45
2023-02-09T00:16:49.913Z,2.45
2023-02-09T00:19:17.342Z,2.44
2023-02-09T00:21:44.296Z,2.44
2023-02-09T00:24:11.834Z,2.42
2023-02-09T00:26:39.447Z,2.41
2023-02-09T00:29:07.476Z,2.41
2023-02-09T00:31:35.164Z,2.38
2023-02-09T00:34:02.868Z,2.36
2023-02-09T00:36:30.105Z,2.36
2023-02-09T00:38:57.236Z,2.37
2023-02-09T00:41:42.629Z,2.37
2023-02-09T00:44:11.310Z,2.36
2023-02-09T00:46:38.066Z,2.37
2023-02-09T00:49:05.339Z,2.37
2023-02-09T00:51:32.155Z,2.37
2023-02-09T00:53:58.858Z,2.38
2023-02-09T00:56:25.621Z,2.39
2023-02-09T00:58:52.324Z,2.37
2023-02-09T01:01:19.131Z,2.38
2023-02-09T01:03:46.974Z,2.34
2023-02-09T01:06:13.877Z,2.32
2023-02-09T01:08:40.643Z,2.29
2023-02-09T01:11:13.961Z,2.28
2023-02-09T01:13:41.732Z,2.24
2023-02-09T01:16:12.207Z,2.22
2023-02-09T01:18:39.543Z,2.22
2023-02-09T01:21:20.821Z,2.22
2023-02-09T01:23:47.977Z,2.20
2023-02-09T01:26:16.515Z,2.21
2023-02-09T01:28:43.716Z,2.20
2023-02-09T01:31:31.731Z,2.21
2023-02-09T01:34:02.380Z,2.19
2023-02-09T01:36:31.332Z,2.19
2023-02-09T01:39:02.245Z,2.20
2023-02-09T01:41:29.879Z,2.23
2023-02-09T01:44:01.505Z,2.25
2023-02-09T01:46:34.992Z,2.26
2023-02-09T01:49:26.333Z,2.25
2023-02-09T01:52:05.678Z,2.23
2023-02-09T01:54:37.539Z,2.22
2023-02-09T01:57:10.866Z,2.20
2023-02-09T01:59:41.471Z,2.20
2023-02-09T02:02:10.430Z,2.20
2023-02-09T02:04:39.049Z,2.19
2023-02-09T02:07:18.897Z,2.19
2023-02-09T02:09:46.572Z,2.15
2023-02-09T02:12:14.365Z,2.14
2023-02-09T02:14:41.107Z,2.13
2023-02-09T02:17:36.724Z,2.12
2023-02-09T02:20:55.690Z,2.05
2023-02-09T02:24:00.553Z,1.96
2023-02-09T02:26:42.143Z,1.92
2023-02-09T02:30:03.775Z,1.90
2023-02-09T02:32:50.806Z,1.86
2023-02-09T02:35:40.108Z,1.85
2023-02-09T02:38:22.395Z,1.84
2023-02-09T02:40:56.821Z,1.84
2023-02-09T02:43:43.333Z,1.83
2023-02-09T02:46:23.315Z,1.82
2023-02-09T02:49:06.883Z,1.82
2023-02-09T02:51:39.548Z,1.78
2023-02-09T02:54:14.528Z,1.80
2023-02-09T02:56:47.222Z,1.80
2023-02-09T02:59:22.180Z,1.80
2023-02-09T03:02:06.259Z,1.80
2023-02-09T03:04:36.644Z,1.80
2023-02-09T03:07:08.402Z,1.81
2023-02-09T03:09:35.207Z,1.80
2023-02-09T03:12:38.258Z,1.83
2023-02-09T03:15:52.974Z,1.80
2023-02-09T03:18:42.994Z,1.78
2023-02-09T03:21:29.275Z,1.78
2023-02-09T03:24:05.267Z,1.77
2023-02-09T03:26:45.923Z,1.79
2023-02-09T03:29:15.711Z,1.79
2023-02-09T03:31:43.174Z,1.80
2023-02-09T03:34:10.637Z,1.79
2023-02-09T03:36:40.230Z,1.78
2023-02-09T03:39:06.930Z,1.75
2023-02-09T03:41:33.704Z,1.73
2023-02-09T03:44:18.842Z,1.69
2023-02-09T03:46:45.682Z,1.65
2023-02-09T03:49:14.752Z,1.63
2023-02-09T03:51:42.579Z,1.62
2023-02-09T03:54:09.474Z,1.60
2023-02-09T03:56:37.398Z,1.61
2023-02-09T03:59:05.832Z,1.61
2023-02-09T04:01:35.683Z,1.60
2023-02-09T04:04:04.424Z,1.59
2023-02-09T04:06:34.564Z,1.59
2023-02-09T04:09:03.368Z,1.58
2023-02-09T04:11:30.123Z,1.59
2023-02-09T04:13:57.300Z,1.58
2023-02-09T04:16:24.676Z,1.58
2023-02-09T04:18:51.726Z,1.57
2023-02-09T04:21:18.583Z,1.57
2023-02-09T04:23:45.725Z,1.55
2023-02-09T04:26:12.955Z,1.54
2023-02-09T04:28:39.716Z,1.50
2023-02-09T04:31:06.788Z,1.48
2023-02-09T04:33:33.588Z,1.47
2023-02-09T04:36:00.487Z,1.45
2023-02-09T04:38:27.365Z,1.43
2023-02-09T04:40:58.057Z,1.41
2023-02-09T04:43:24.780Z,1.39
2023-02-09T04:45:51.878Z,1.38
2023-02-09T04:48:21.969Z,1.37
2023-02-09T04:50:49.288Z,1.36
2023-02-09T04:53:16.777Z,1.35
2023-02-09T04:55:46.303Z,1.35
2023-02-09T04:58:36.755Z,1.34
2023-02-09T05:01:05.331Z,1.33
2023-02-09T05:03:32.514Z,1.31
2023-02-09T05:06:05.114Z,1.32
2023-02-09T05:08:32.101Z,1.31
2023-02-09T05:10:59.076Z,1.32
2023-02-09T05:13:27.180Z,1.30
2023-02-09T05:15:54.526Z,1.28
2023-02-09T05:18:22.342Z,1.27
2023-02-09T05:20:50.206Z,1.25
2023-02-09T05:23:17.482Z,1.24
2023-02-09T05:25:45.753Z,1.23
2023-02-09T05:28:12.867Z,1.21
2023-02-09T05:30:39.676Z,1.18
2023-02-09T05:33:06.582Z,1.18
2023-02-09T05:35:33.424Z,1.16
2023-02-09T05:38:00.173Z,1.16
2023-02-09T05:40:26.967Z,1.15
2023-02-09T05:42:53.713Z,1.13
2023-02-09T05:45:20.790Z,1.11
2023-02-09T05:47:47.557Z,1.11
2023-02-09T05:50:14.800Z,1.11
2023-02-09T05:52:41.500Z,1.08
2023-02-09T05:55:08.376Z,1.08
2023-02-09T05:57:35.135Z,1.05
2023-02-09T06:00:03.655Z,1.03
2023-02-09T06:02:30.449Z,1.02
2023-02-09T06:04:57.201Z,0.98
2023-02-09T06:07:23.915Z,0.95
2023-02-09T06:09:50.655Z,0.92
2023-02-09T06:12:17.397Z,0.87
2023-02-09T06:14:44.137Z,0.86
2023-02-09T06:17:10.908Z,0.81
2023-02-09T06:19:37.637Z,0.80
2023-02-09T06:22:04.376Z,0.79
2023-02-09T06:24:31.114Z,0.77
2023-02-09T06:26:57.858Z,0.77
2023-02-09T06:29:24.630Z,0.78
2023-02-09T06:31:51.666Z,0.77
2023-02-09T06:34:18.435Z,0.76
2023-02-09T06:36:45.147Z,0.76
2023-02-09T06:39:11.912Z,0.74
2023-02-09T06:41:38.722Z,0.75
2023-02-09T06:44:05.787Z,0.74
2023-02-09T06:46:33.655Z,0.75
2023-02-09T06:49:00.452Z,0.75
2023-02-09T06:51:27.263Z,0.75
2023-02-09T06:53:54.227Z,0.73
2023-02-09T06:56:20.948Z,0.73
2023-02-09T06:58:47.811Z,0.73
2023-02-09T07:01:16.149Z,0.73
2023-02-09T07:03:44.483Z,0.74
2023-02-09T07:06:16.064Z,0.75
2023-02-09T07:08:44.689Z,0.77
2023-02-09T07:11:17.257Z,0.81
2023-02-09T07:13:44.897Z,0.91
2023-02-09T07:16:13.021Z,1.03
2023-02-09T07:18:40.546Z,1.26
2023-02-09T07:21:19.899Z,1.56
2023-02-09T07:23:48.470Z,1.95
2023-02-09T07:26:18.347Z,2.45
2023-02-09T07:28:45.332Z,3.07
2023-02-09T07:31:15.021Z,3.77
2023-02-09T07:33:42.254Z,4.55
2023-02-09T07:36:13.408Z,5.40
2023-02-09T07:38:40.853Z,6.28
2023-02-09T07:41:15.373Z,7.20
2023-02-09T07:43:42.450Z,8.13
2023-02-09T07:46:10.129Z,9.07
2023-02-09T07:48:37.786Z,9.99
2023-02-09T07:51:05.303Z,10.87
2023-02-09T07:53:33.159Z,11.69
2023-02-09T07:55:59.947Z,12.48
2023-02-09T07:58:26.741Z,13.26
2023-02-09T08:00:53.519Z,13.97
2023-02-09T08:03:23.781Z,14.60
2023-02-09T08:06:10.546Z,15.18
2023-02-09T08:08:37.300Z,15.67
2023-02-09T08:11:05.458Z,16.14
2023-02-09T08:13:38.047Z,16.61
2023-02-09T08:16:09.755Z,17.01
2023-02-09T08:18:41.728Z,17.44
2023-02-09T08:21:12.903Z,17.85
2023-02-09T08:23:43.086Z,18.25
2023-02-09T08:26:13.244Z,18.72
2023-02-09T08:28:45.371Z,19.21
2023-02-09T08:31:15.833Z,19.63
2023-02-09T08:33:44.459Z,19.95
2023-02-09T08:36:13.051Z,20.25
2023-02-09T08:38:39.965Z,20.60
2023-02-09T08:41:10.157Z,21.04
2023-02-09T08:43:36.993Z,21.43
2023-02-09T08:46:11.715Z,21.80
2023-02-09T08:48:43.318Z,22.09
2023-02-09T08:51:12.665Z,22.34
2023-02-09T08:53:40.028Z,22.63
2023-02-09T08:56:07.246Z,22.93
2023-02-09T08:58:34.844Z,23.28
2023-02-09T09:01:01.660Z,23.59
2023-02-09T09:03:31.510Z,23.82
2023-02-09T09:06:05.160Z,24.04
2023-02-09T09:08:34.620Z,24.29
2023-02-09T09:11:02.267Z,24.55
2023-02-09T09:13:29.189Z,24.77
2023-02-09T09:15:56.405Z,24.89
2023-02-09T09:18:24.928Z,24.96
2023-02-09T09:20:52.963Z,25.03
2023-02-09T09:23:21.067Z,25.13
2023-02-09T09:25:48.619Z,25.29
2023-02-09T09:28:16.441Z,25.46
2023-02-09T09:30:43.776Z,25.60
2023-02-09T09:33:10.620Z,25.77
2023-02-09T09:35:37.707Z,25.84
2023-02-09T09:38:04.658Z,25.91
2023-02-09T09:40:36.113Z,25.98
2023-02-09T09:43:08.648Z,25.90
2023-02-09T09:45:39.358Z,25.60
2023-02-09T09:48:26.412Z,25.23
2023-02-09T09:51:00.758Z,24.99
2023-02-09T09:53:33.505Z,24.80
2023-02-09T09:56:08.697Z,24.66
2023-02-09T09:58:40.749Z,24.60
2023-02-09T10:01:14.250Z,24.59
2023-02-09T10:03:41.115Z,24.66
2023-02-09T10:06:34.103Z,24.70
2023-02-09T10:09:22.643Z,24.86
2023-02-09T10:12:11.865Z,25.12
2023-02-09T10:14:38.564Z,25.42
2023-02-09T10:17:06.470Z,25.64
2023-02-09T10:19:33.928Z,25.75
2023-02-09T10:22:00.872Z,25.82
2023-02-09T10:24:33.837Z,25.78
2023-02-09T10:27:20.755Z,25.64
2023-02-09T10:29:48.027Z,25.57
2023-02-09T10:32:19.287Z,25.46
2023-02-09T10:34:52.714Z,25.31
2023-02-09T10:37:57.917Z,25.03
2023-02-09T10:40:32.607Z,24.84
2023-02-09T10:43:20.908Z,24.57
2023-02-09T10:45:59.045Z,24.38
2023-02-09T10:48:29.023Z,24.26
2023-02-09T10:51:12.700Z,24.16
2023-02-09T10:54:02.017Z,24.07
2023-02-09T10:56:43.662Z,24.03
2023-02-09T10:59:22.877Z,23.96
2023-02-09T11:01:58.273Z,23.89
2023-02-09T11:04:40.490Z,23.75
2023-02-09T11:07:17.749Z,23.65
2023-02-09T11:09:51.585Z,23.57
2023-02-09T11:12:22.532Z,23.50
2023-02-09T11:14:49.557Z,23.47
2023-02-09T11:17:41.184Z,23.41
2023-02-09T11:20:51.162Z,23.37
2023-02-09T11:23:44.520Z,23.39
2023-02-09T11:26:30.073Z,23.50
2023-02-09T11:29:17.117Z,23.62
2023-02-09T11:32:17.571Z,23.76
2023-02-09T11:35:10.071Z,23.91
2023-02-09T11:38:01.601Z,23.96
2023-02-09T11:40:42.658Z,23.85
2023-02-09T11:43:18.732Z,23.74
2023-02-09T11:45:51.218Z,23.66
2023-02-09T11:48:30.128Z,23.60
2023-02-09T11:51:15.162Z,23.56
2023-02-09T11:53:51.511Z,23.54
2023-02-09T11:56:25.681Z,23.52
2023-02-09T11:59:19.950Z,23.50
2023-02-09T12:02:46.409Z,23.46
2023-02-09T12:05:19.678Z,23.42
2023-02-09T12:08:26.915Z,23.29
2023-02-09T12:11:18.109Z,23.15
2023-02-09T12:14:37.761Z,23.01
2023-02-09T12:17:18.888Z,22.86
2023-02-09T12:20:00.259Z,22.72
2023-02-09T12:22:36.097Z,22.57
2023-02-09T12:25:12.083Z,22.41
2023-02-09T12:28:03.611Z,22.24
2023-02-09T12:30:42.766Z,21.97
2023-02-09T12:33:25.218Z,21.73
2023-02-09T12:36:02.693Z,21.48
2023-02-09T12:38:51.537Z,21.21
2023-02-09T12:41:35.444Z,20.98
2023-02-09T12:44:10.893Z,20.79
2023-02-09T12:46:53.405Z,20.60
2023-02-09T12:49:33.452Z,20.43
2023-02-09T12:52:02.963Z,20.27
2023-02-09T12:54:40.591Z,20.10
2023-02-09T12:57:16.236Z,19.91
2023-02-09T13:00:00.689Z,19.75
2023-02-09T13:02:42.859Z,19.54
2023-02-09T13:05:30.674Z,19.33
2023-02-09T13:08:13.179Z,19.19
2023-02-09T13:10:42.736Z,19.02
2023-02-09T13:13:12.220Z,18.87
2023-02-09T13:16:29.319Z,18.64
2023-02-09T13:19:21.037Z,18.49
2023-02-09T13:22:21.941Z,18.32
2023-02-09T13:25:00.445Z,18.14
2023-02-09T13:27:30.063Z,17.97
2023-02-09T13:29:59.477Z,17.84
2023-02-09T13:33:32.142Z,17.57
2023-02-09T13:36:16.250Z,17.38
2023-02-09T13:38:49.879Z,17.23
2023-02-09T13:41:37.123Z,17.07
2023-02-09T13:44:18.344Z,16.94
2023-02-09T13:46:57.517Z,16.78
2023-02-09T13:49:27.773Z,16.65
2023-02-09T13:52:22.081Z,16.44
2023-02-09T13:54:49.520Z,16.25
2023-02-09T13:57:36.120Z,16.08
2023-02-09T14:00:15.383Z,15.97
2023-02-09T14:02:49.815Z,15.87
2023-02-09T14:05:48.188Z,15.75
2023-02-09T14:08:18.771Z,15.64
2023-02-09T14:10:56.591Z,15.53
2023-02-09T14:13:36.881Z,15.40
2023-02-09T14:16:06.790Z,15.28
2023-02-09T14:18:52.954Z,15.12
2023-02-09T14:21:31.067Z,14.99
2023-02-09T14:24:00.882Z,14.86
2023-02-09T14:26:51.853Z,14.74
2023-02-09T14:29:37.523Z,14.62
2023-02-09T14:32:38.090Z,14.46
2023-02-09T14:35:44.257Z,14.34
2023-02-09T14:38:36.765Z,14.23
2023-02-09T14:41:32.383Z,14.14
2023-02-09T14:44:07.369Z,14.07
2023-02-09T14:46:56.074Z,14.00
2023-02-09T14:49:23.811Z,13.91
2023-02-09T14:52:01.579Z,13.84
2023-02-09T14:54:33.093Z,13.76
2023-02-09T14:57:01.110Z,13.68
2023-02-09T14:59:28.017Z,13.60
2023-02-09T15:01:55.367Z,13.54
2023-02-09T15:04:22.171Z,13.50
2023-02-09T15:07:02.854Z,13.43
2023-02-09T15:09:36.773Z,13.38
2023-02-09T15:12:06.004Z,13.31
2023-02-09T15:14:44.716Z,13.22
2023-02-09T15:17:20.772Z,13.16
2023-02-09T15:19:48.172Z,13.10
2023-02-09T15:22:16.969Z,13.06
2023-02-09T15:24:46.687Z,13.02
2023-02-09T15:27:31.994Z,12.94
2023-02-09T15:30:01.682Z,12.89
2023-02-09T15:32:29.784Z,12.82
2023-02-09T15:34:56.567Z,12.79
2023-02-09T15:37:32.996Z,12.74
2023-02-09T15:40:40.856Z,12.65
2023-02-09T15:43:32.216Z,12.53
2023-02-09T15:46:17.911Z,12.42
2023-02-09T15:48:44.798Z,12.35
2023-02-09T15:51:11.822Z,12.26
2023-02-09T15:53:39.061Z,12.19
2023-02-09T15:56:08.049Z,12.13
2023-02-09T15:58:39.497Z,12.03
2023-02-09T16:01:06.799Z,11.94
2023-02-09T16:03:33.640Z,11.85
2023-02-09T16:06:07.317Z,11.77
2023-02-09T16:08:35.419Z,11.68
2023-02-09T16:11:02.792Z,11.57
2023-02-09T16:13:29.531Z,11.48
2023-02-09T16:16:05.121Z,11.38
2023-02-09T16:18:37.943Z,11.27
2023-02-09T16:21:07.080Z,11.17
2023-02-09T16:23:35.048Z,11.09
2023-02-09T16:26:05.108Z,10.98
2023-02-09T16:28:31.934Z,10.88
2023-02-09T16:30:58.794Z,10.80
2023-02-09T16:33:26.544Z,10.68
2023-02-09T16:35:55.994Z,10.59
2023-02-09T16:38:24.962Z,10.48
2023-02-09T16:40:54.067Z,10.39
2023-02-09T16:43:22.491Z,10.29
2023-02-09T16:46:02.748Z,10.20
2023-02-09T16:48:34.321Z,10.06
2023-02-09T16:51:01.129Z,9.95
2023-02-09T16:53:36.684Z,9.85
2023-02-09T16:56:10.017Z,9.75
2023-02-09T16:58:37.480Z,9.65
2023-02-09T17:01:16.796Z,9.94
2023-02-09T17:03:48.037Z,9.86
2023-02-09T17:06:25.270Z,9.64
2023-02-09T17:08:53.195Z,9.44
2023-02-09T17:11:24.679Z,9.30
2023-02-09T17:13:51.482Z,9.18
2023-02-09T17:16:34.190Z,9.06
2023-02-09T17:19:04.688Z,8.97
2023-02-09T17:21:38.000Z,8.87
2023-02-09T17:24:11.634Z,8.77
2023-02-09T17:26:39.964Z,8.68
2023-02-09T17:29:07.358Z,8.59
2023-02-09T17:31:50.780Z,8.52
2023-02-09T17:34:20.221Z,8.43
2023-02-09T17:36:47.060Z,8.33
2023-02-09T17:39:13.992Z,8.27
2023-02-09T17:41:46.455Z,8.22
2023-02-09T17:44:39.595Z,8.14
2023-02-09T17:47:16.820Z,8.06
2023-02-09T17:49:44.032Z,8.00
2023-02-09T17:52:30.374Z,7.95
2023-02-09T17:54:57.422Z,7.89
2023-02-09T17:57:27.447Z,7.85
2023-02-09T17:59:54.261Z,7.80
2023-02-09T18:02:21.299Z,7.78
2023-02-09T18:04:48.109Z,7.75
2023-02-09T18:07:20.832Z,7.74
2023-02-09T18:09:47.783Z,7.71
2023-02-09T18:12:21.260Z,7.72
2023-02-09T18:14:48.200Z,7.73
2023-02-09T18:17:15.092Z,7.74
2023-02-09T18:19:41.871Z,7.76
2023-02-09T18:22:16.868Z,7.78
2023-02-09T18:24:44.033Z,7.80
2023-02-09T18:27:18.591Z,7.84
2023-02-09T18:29:45.527Z,7.87
2023-02-09T18:32:16.464Z,7.90
2023-02-09T18:34:43.801Z,7.93
2023-02-09T18:37:10.535Z,7.96
2023-02-09T18:39:40.631Z,8.00
2023-02-09T18:42:07.388Z,8.02
2023-02-09T18:44:34.266Z,8.40
2023-02-09T18:47:01.879Z,8.50
2023-02-09T18:49:29.812Z,8.41
2023-02-09T18:51:58.656Z,8.36
2023-02-09T18:54:27.169Z,8.35
2023-02-09T18:56:55.424Z,8.34
2023-02-09T18:59:22.176Z,8.35
2023-02-09T19:01:50.352Z,8.34
2023-02-09T19:04:17.142Z,8.36
2023-02-09T19:06:43.885Z,8.39
2023-02-09T19:09:10.656Z,8.39
2023-02-09T19:11:37.661Z,8.41
2023-02-09T19:14:23.780Z,8.43
2023-02-09T19:16:50.946Z,8.42
2023-02-09T19:19:19.151Z,8.43
2023-02-09T19:21:47.680Z,8.46
2023-02-09T19:24:14.808Z,8.45
2023-02-09T19:26:42.049Z,8.49
2023-02-09T19:29:09.039Z,8.51
2023-02-09T19:31:37.230Z,8.50
2023-02-09T19:34:04.277Z,8.54
2023-02-09T19:36:31.060Z,8.54
2023-02-09T19:38:57.861Z,8.57
2023-02-09T19:41:25.630Z,8.57
2023-02-09T19:43:58.983Z,8.59
2023-02-09T19:46:25.934Z,8.60
2023-02-09T19:48:55.951Z,8.61
2023-02-09T19:51:23.369Z,8.63
2023-02-09T19:53:50.883Z,8.62
2023-02-09T19:56:20.769Z,8.62
2023-02-09T19:58:47.577Z,8.63
2023-02-09T20:01:14.373Z,8.62
2023-02-09T20:03:41.341Z,8.63
2023-02-09T20:06:12.026Z,8.65
2023-02-09T20:08:39.860Z,8.63
2023-02-09T20:11:09.813Z,8.67
2023-02-09T20:13:37.619Z,8.66
2023-02-09T20:16:14.385Z,8.67
2023-02-09T20:18:41.281Z,8.66
2023-02-09T20:21:09.768Z,8.66
2023-02-09T20:23:37.415Z,8.65
2023-02-09T20:26:28.952Z,8.66
2023-02-09T20:28:57.300Z,8.62
2023-02-09T20:31:29.708Z,8.61
2023-02-09T20:33:56.636Z,8.60
2023-02-09T20:36:25.525Z,8.61
2023-02-09T20:38:52.493Z,8.61
2023-02-09T20:41:19.319Z,8.60
2023-02-09T20:44:04.717Z,8.60
2023-02-09T20:46:51.736Z,8.58
2023-02-09T20:49:19.391Z,8.57
2023-02-09T20:51:46.987Z,8.57
2023-02-09T20:54:14.530Z,8.57
2023-02-09T20:56:41.812Z,8.56
2023-02-09T20:59:08.969Z,8.56
2023-02-09T21:01:39.808Z,8.55
2023-02-09T21:04:07.415Z,8.54
2023-02-09T21:06:37.093Z,8.51
2023-02-09T21:09:08.962Z,8.51
2023-02-09T21:11:35.721Z,8.50
2023-02-09T21:14:02.578Z,8.50
2023-02-09T21:16:30.811Z,8.50
2023-02-09T21:18:58.533Z,8.51
2023-02-09T21:21:29.414Z,8.50
2023-02-09T21:23:56.210Z,8.50
2023-02-09T21:26:24.439Z,8.48
2023-02-09T21:28:56.004Z,8.46
2023-02-09T21:31:26.884Z,8.46
2023-02-09T21:33:53.889Z,8.44
2023-02-09T21:36:20.627Z,8.45
2023-02-09T21:38:47.464Z,8.46
2023-02-09T21:41:38.875Z,8.43
2023-02-09T21:44:07.392Z,8.39
2023-02-09T21:46:34.444Z,8.36
2023-02-09T21:49:01.429Z,8.34
2023-02-09T21:51:28.275Z,8.34
2023-02-09T21:53:55.411Z,8.34
2023-02-09T21:56:22.459Z,8.33
2023-02-09T21:58:49.241Z,8.33
2023-02-09T22:01:16.007Z,8.33
2023-02-09T22:03:48.257Z,8.30
2023-02-09T22:06:15.279Z,8.32
2023-02-09T22:08:42.030Z,8.31
2023-02-09T22:11:08.761Z,8.32
2023-02-09T22:13:35.541Z,8.32
2023-02-09T22:16:07.456Z,8.33
2023-02-09T22:18:35.082Z,8.33
2023-02-09T22:21:07.476Z,8.34
2023-02-09T22:23:34.340Z,8.35
2023-02-09T22:26:05.458Z,8.36
2023-02-09T22:28:36.033Z,8.37
2023-02-09T22:31:16.502Z,8.37
2023-02-09T22:33:44.164Z,8.36
2023-02-09T22:36:18.208Z,8.36
2023-02-09T22:38:45.269Z,8.36
2023-02-09T22:41:22.478Z,8.36
2023-02-09T22:43:52.333Z,8.37
2023-02-09T22:46:49.501Z,8.36
2023-02-09T22:49:19.965Z,8.34
2023-02-09T22:51:48.813Z,8.33
2023-02-09T22:54:18.329Z,8.33
2023-02-09T22:56:45.383Z,8.32
2023-02-09T22:59:14.799Z,8.33
2023-02-09T23:01:42.551Z,8.34
2023-02-09T23:04:09.730Z,8.35
2023-02-09T23:06:36.612Z,8.36
2023-02-09T23:09:07.399Z,8.37
2023-02-09T23:11:35.455Z,8.37
2023-02-09T23:14:09.576Z,8.37
2023-02-09T23:16:39.486Z,8.37
2023-02-09T23:19:09.392Z,8.38
2023-02-09T23:21:40.724Z,8.40
2023-02-09T23:24:08.593Z,8.42
2023-02-09T23:26:36.357Z,8.42
2023-02-09T23:29:07.234Z,8.44
2023-02-09T23:31:34.528Z,8.43
2023-02-09T23:34:01.336Z,8.45
2023-02-09T23:36:31.744Z,8.46
2023-02-09T23:39:05.232Z,8.46
2023-02-09T23:41:32.332Z,8.45
2023-02-09T23:43:59.653Z,8.47
2023-02-09T23:46:29.101Z,8.46
2023-02-09T23:48:57.268Z,8.47
2023-02-09T23:51:30.823Z,8.46
2023-02-09T23:54:01.513Z,8.47
2023-02-09T23:56:33.084Z,8.46
2023-02-09T23:58:59.799Z,8.47
